Wetterstation Vordersexau
Wetterdaten: Woche 02.06.14 - 08.06.14 (KW23)
Datum Zeit Temp. A. Feuchte A. Luftdruck Regen Wind Richtung Taupunkt Windchill Windben
02.06.2014 00:00 13,3 C 74 % 989,1 hPa 0,0 l/m 0,0 km/h O-SO 8,8 C 13,3 C 0,0 km/h
02.06.2014 01:00 12,9 C 76 % 989,1 hPa 0,0 l/m 0,0 km/h O-SO 8,8 C 12,9 C 0,0 km/h
02.06.2014 02:00 11,1 C 77 % 989,0 hPa 0,0 l/m 0,0 km/h O-SO 7,2 C 11,1 C 0,0 km/h
02.06.2014 03:00 9,9 C 80 % 989,2 hPa 0,0 l/m 0,0 km/h O 6,6 C 9,9 C 0,0 km/h
02.06.2014 04:00 8,8 C 82 % 989,1 hPa 0,0 l/m 0,0 km/h O-NO 5,9 C 8,8 C 0,0 km/h
02.06.2014 05:00 7,6 C 83 % 989,2 hPa 0,0 l/m 0,0 km/h O-NO 4,9 C 7,6 C 0,0 km/h
02.06.2014 06:00 7,4 C 84 % 989,3 hPa 0,0 l/m 0,0 km/h O-NO 4,9 C 7,4 C 0,0 km/h
02.06.2014 07:00 10,8 C 84 % 989,3 hPa 0,0 l/m 0,0 km/h O-SO 8,2 C 10,8 C 0,0 km/h
02.06.2014 08:00 21,6 C 58 % 989,2 hPa 0,0 l/m 0,0 km/h W-NW 13,0 C 21,6 C 0,0 km/h
02.06.2014 09:00 23,4 C 48 % 989,0 hPa 0,0 l/m 0,0 km/h SW 11,8 C 23,4 C 0,0 km/h
02.06.2014 10:00 24,8 C 44 % 989,0 hPa 0,0 l/m 2,6 km/h S-SW 11,7 C 24,8 C 1,4 km/h
02.06.2014 11:00 25,6 C 42 % 988,5 hPa 0,0 l/m 1,9 km/h W-NW 11,7 C 25,6 C 1,1 km/h
02.06.2014 12:00 25,6 C 44 % 987,8 hPa 0,0 l/m 0,0 km/h W 12,4 C 25,6 C 0,0 km/h
02.06.2014 13:00 22,9 C 42 % 987,5 hPa 0,0 l/m 0,6 km/h NW 9,3 C 22,9 C 0,4 km/h
02.06.2014 14:00 23,6 C 41 % 987,3 hPa 0,0 l/m 11,0 km/h W-NW 9,6 C 22,4 C 6,1 km/h
02.06.2014 15:00 22,7 C 48 % 987,4 hPa 0,0 l/m 13,6 km/h N-NO 11,1 C 20,8 C 7,6 km/h
02.06.2014 16:00 22,1 C 48 % 987,4 hPa 0,0 l/m 5,2 km/h W-NW 10,6 C 22,1 C 2,9 km/h
02.06.2014 17:00 22,1 C 49 % 987,4 hPa 0,0 l/m 1,3 km/h N 10,9 C 22,1 C 0,7 km/h
02.06.2014 18:00 25,9 C 39 % 987,0 hPa 0,0 l/m 6,5 km/h N 10,9 C 25,9 C 3,6 km/h
02.06.2014 19:00 22,8 C 45 % 987,0 hPa 0,0 l/m 0,0 km/h SO 10,2 C 22,8 C 0,0 km/h
02.06.2014 20:00 18,1 C 58 % 987,1 hPa 0,0 l/m 0,0 km/h SO 9,7 C 18,1 C 0,0 km/h
02.06.2014 21:00 15,9 C 66 % 987,7 hPa 0,0 l/m 0,0 km/h SO 9,6 C 15,9 C 0,0 km/h
02.06.2014 22:00 13,9 C 74 % 988,0 hPa 0,0 l/m 0,0 km/h SO 9,3 C 13,9 C 0,0 km/h
02.06.2014 23:00 13,6 C 76 % 988,0 hPa 0,0 l/m 0,0 km/h O 9,4 C 13,6 C 0,0 km/h
03.06.2014 00:00 12,9 C 79 % 988,0 hPa 0,0 l/m 0,0 km/h O 9,3 C 12,9 C 0,0 km/h
03.06.2014 01:00 12,1 C 81 % 987,6 hPa 0,0 l/m 0,0 km/h O-SO 8,9 C 12,1 C 0,0 km/h
03.06.2014 02:00 11,9 C 82 % 987,5 hPa 0,0 l/m 0,0 km/h SO 8,9 C 11,9 C 0,0 km/h
03.06.2014 03:00 10,8 C 83 % 987,4 hPa 0,0 l/m 0,0 km/h SO 8,0 C 10,8 C 0,0 km/h
03.06.2014 04:00 10,0 C 84 % 987,0 hPa 0,0 l/m 0,0 km/h SO 7,4 C 10,0 C 0,0 km/h
03.06.2014 05:00 9,6 C 84 % 987,1 hPa 0,0 l/m 0,6 km/h SO 7,0 C 9,6 C 0,4 km/h
03.06.2014 06:00 10,4 C 85 % 987,0 hPa 0,0 l/m 0,0 km/h O-SO 8,0 C 10,4 C 0,0 km/h
03.06.2014 07:00 12,2 C 84 % 987,0 hPa 0,0 l/m 0,0 km/h SO 9,6 C 12,2 C 0,0 km/h
03.06.2014 08:00 21,4 C 65 % 986,9 hPa 0,0 l/m 0,0 km/h W-NW 14,5 C 21,4 C 0,0 km/h
03.06.2014 09:00 21,3 C 59 % 987,0 hPa 0,0 l/m 0,0 km/h SW 13,0 C 21,3 C 0,0 km/h
03.06.2014 10:00 22,3 C 58 % 986,6 hPa 0,0 l/m 5,2 km/h SW 13,6 C 22,3 C 2,9 km/h
03.06.2014 11:00 25,8 C 48 % 986,3 hPa 0,0 l/m 0,0 km/h N-NO 13,9 C 25,8 C 0,0 km/h
03.06.2014 12:00 25,6 C 42 % 985,7 hPa 0,0 l/m 0,0 km/h W-NW 11,7 C 25,6 C 0,0 km/h
03.06.2014 13:00 25,0 C 41 % 985,5 hPa 0,0 l/m 13,6 km/h W-NW 10,8 C 23,5 C 7,6 km/h
03.06.2014 14:00 20,7 C 50 % 985,5 hPa 0,0 l/m 3,2 km/h S-SO 9,9 C 20,7 C 1,8 km/h
03.06.2014 15:00 25,1 C 47 % 985,2 hPa 0,0 l/m 16,2 km/h O-SO 13,0 C 23,3 C 9,0 km/h
03.06.2014 16:00 26,9 C 41 % 984,8 hPa 0,0 l/m 0,0 km/h W 12,5 C 26,9 C 0,0 km/h
03.06.2014 17:00 26,6 C 38 % 984,3 hPa 0,0 l/m 1,9 km/h W 11,1 C 26,6 C 1,1 km/h
03.06.2014 18:00 27,7 C 33 % 983,9 hPa 0,0 l/m 0,0 km/h W 9,9 C 27,7 C 0,0 km/h
03.06.2014 19:00 23,6 C 42 % 983,6 hPa 0,0 l/m 0,0 km/h W-NW 9,9 C 23,6 C 0,0 km/h
03.06.2014 20:00 18,8 C 56 % 983,8 hPa 0,0 l/m 0,0 km/h W-NW 9,8 C 18,8 C 0,0 km/h
03.06.2014 21:00 16,5 C 62 % 983,8 hPa 0,0 l/m 0,0 km/h SW 9,2 C 16,5 C 0,0 km/h
03.06.2014 22:00 15,1 C 66 % 983,9 hPa 0,0 l/m 0,0 km/h S-SW 8,8 C 15,1 C 0,0 km/h
03.06.2014 23:00 15,1 C 68 % 983,9 hPa 0,0 l/m 0,0 km/h SO 9,2 C 15,1 C 0,0 km/h
04.06.2014 00:00 13,8 C 71 % 983,2 hPa 0,0 l/m 0,0 km/h SO 8,6 C 13,8 C 0,0 km/h
04.06.2014 01:00 12,5 C 75 % 983,1 hPa 0,0 l/m 0,0 km/h SO 8,2 C 12,5 C 0,0 km/h
04.06.2014 02:00 11,9 C 78 % 982,8 hPa 0,0 l/m 0,0 km/h SO 8,2 C 11,9 C 0,0 km/h
04.06.2014 03:00 9,6 C 81 % 982,4 hPa 0,0 l/m 0,0 km/h O-SO 6,5 C 9,6 C 0,0 km/h
04.06.2014 04:00 9,2 C 83 % 981,7 hPa 0,0 l/m 0,0 km/h O-SO 6,5 C 9,2 C 0,0 km/h
04.06.2014 05:00 8,9 C 84 % 981,4 hPa 0,0 l/m 0,0 km/h N-NO 6,3 C 8,9 C 0,0 km/h
04.06.2014 06:00 10,7 C 84 % 981,0 hPa 0,0 l/m 0,0 km/h SO 8,1 C 10,7 C 0,0 km/h
04.06.2014 07:00 13,6 C 82 % 980,7 hPa 0,0 l/m 0,0 km/h SO 10,6 C 13,6 C 0,0 km/h
04.06.2014 08:00 16,9 C 72 % 980,3 hPa 0,0 l/m 0,0 km/h O-SO 11,8 C 16,9 C 0,0 km/h
04.06.2014 09:00 18,4 C 67 % 979,9 hPa 0,0 l/m 0,0 km/h W 12,2 C 18,4 C 0,0 km/h
04.06.2014 10:00 22,6 C 58 % 979,6 hPa 0,0 l/m 0,0 km/h W-SW 13,9 C 22,6 C 0,0 km/h
04.06.2014 11:00 21,8 C 60 % 979,8 hPa 0,0 l/m 7,8 km/h W 13,7 C 21,3 C 4,3 km/h
04.06.2014 12:00 22,3 C 59 % 979,9 hPa 0,0 l/m 4,5 km/h SW 13,9 C 22,3 C 2,5 km/h
04.06.2014 13:00 20,4 C 62 % 979,9 hPa 0,0 l/m 5,8 km/h W-SW 12,9 C 20,4 C 3,2 km/h
04.06.2014 14:00 18,8 C 65 % 979,5 hPa 0,0 l/m 0,0 km/h W-SW 12,1 C 18,8 C 0,0 km/h
04.06.2014 15:00 19,2 C 64 % 979,2 hPa 0,0 l/m 0,0 km/h W 12,2 C 19,2 C 0,0 km/h
04.06.2014 16:00 15,9 C 81 % 980,4 hPa 0,3 l/m 5,2 km/h S-SO 12,6 C 15,9 C 2,9 km/h
04.06.2014 17:00 15,1 C 83 % 980,4 hPa 1,2 l/m 1,3 km/h S 12,2 C 15,1 C 0,7 km/h
04.06.2014 18:00 16,4 C 80 % 980,2 hPa 0,0 l/m 11,0 km/h S-SO 12,9 C 14,3 C 6,1 km/h
04.06.2014 19:00 15,9 C 78 % 980,0 hPa 0,0 l/m 0,0 km/h NO 12,1 C 15,9 C 0,0 km/h
04.06.2014 20:00 15,9 C 79 % 980,5 hPa 0,0 l/m 0,0 km/h S-SO 12,3 C 15,9 C 0,0 km/h
04.06.2014 21:00 12,3 C 84 % 982,3 hPa 0,5 l/m 0,0 km/h SW 9,7 C 12,3 C 0,0 km/h
04.06.2014 22:00 12,7 C 84 % 982,5 hPa 0,0 l/m 7,6 km/h N 10,1 C 11,9 C 7,6 km/h
04.06.2014 23:00 12,4 C 84 % 983,1 hPa 0,0 l/m 2,5 km/h W 9,8 C 12,4 C 2,5 km/h
05.06.2014 00:00 12,1 C 84 % 984,0 hPa 0,0 l/m 4,3 km/h W-SW 9,5 C 12,1 C 4,3 km/h
05.06.2014 01:00 12,1 C 84 % 984,5 hPa 0,0 l/m 0,0 km/h W 9,5 C 12,1 C 0,0 km/h
05.06.2014 02:00 11,8 C 85 % 984,9 hPa 0,0 l/m 0,0 km/h W-NW 9,4 C 11,8 C 0,0 km/h
05.06.2014 03:00 10,2 C 85 % 985,4 hPa 0,0 l/m 0,0 km/h W-NW 7,8 C 10,2 C 0,0 km/h
05.06.2014 04:00 10,1 C 85 % 985,7 hPa 0,0 l/m 0,0 km/h N-NW 7,7 C 10,1 C 0,0 km/h
05.06.2014 05:00 9,8 C 85 % 985,4 hPa 0,0 l/m 0,0 km/h N-NO 7,4 C 9,8 C 0,0 km/h
05.06.2014 06:00 10,2 C 83 % 986,1 hPa 0,0 l/m 0,0 km/h S-SW 7,4 C 10,2 C 0,0 km/h
05.06.2014 07:00 12,5 C 83 % 986,1 hPa 0,0 l/m 0,0 km/h S-SO 9,7 C 12,5 C 0,0 km/h
05.06.2014 08:00 17,6 C 71 % 986,2 hPa 0,0 l/m 6,5 km/h S 12,3 C 17,6 C 3,6 km/h
05.06.2014 09:00 20,9 C 56 % 986,4 hPa 0,0 l/m 15,6 km/h W 11,8 C 18,2 C 8,6 km/h
05.06.2014 10:00 21,4 C 53 % 986,4 hPa 0,0 l/m 13,6 km/h W 11,4 C 19,3 C 7,6 km/h
05.06.2014 11:00 22,9 C 50 % 986,7 hPa 0,0 l/m 3,2 km/h W-SW 11,9 C 22,9 C 1,8 km/h
05.06.2014 12:00 21,9 C 48 % 986,6 hPa 0,0 l/m 4,3 km/h S-SO 10,4 C 21,9 C 4,3 km/h
05.06.2014 13:00 22,4 C 45 % 986,1 hPa 0,0 l/m 0,0 km/h W-SW 9,9 C 22,4 C 0,0 km/h
05.06.2014 14:00 22,9 C 44 % 986,3 hPa 0,0 l/m 20,7 km/h S-SW 10,0 C 19,9 C 11,5 km/h
05.06.2014 15:00 23,9 C 40 % 986,3 hPa 0,0 l/m 1,3 km/h W-SW 9,5 C 23,9 C 0,7 km/h
05.06.2014 16:00 25,9 C 36 % 986,0 hPa 0,0 l/m 26,6 km/h W 9,7 C 23,3 C 14,8 km/h
05.06.2014 17:00 28,2 C 33 % 985,9 hPa 0,0 l/m 6,5 km/h W-SW 10,4 C 28,2 C 3,6 km/h
05.06.2014 18:00 27,4 C 34 % 985,7 hPa 0,0 l/m 13,6 km/h SW 10,1 C 26,4 C 7,6 km/h
05.06.2014 19:00 24,9 C 37 % 985,8 hPa 0,0 l/m 1,9 km/h W-SW 9,2 C 24,9 C 1,1 km/h
05.06.2014 20:00 18,6 C 47 % 985,8 hPa 0,0 l/m 0,0 km/h O-SO 7,1 C 18,6 C 0,0 km/h
05.06.2014 21:00 15,3 C 59 % 986,2 hPa 0,0 l/m 0,0 km/h O-SO 7,3 C 15,3 C 0,0 km/h
05.06.2014 22:00 12,2 C 68 % 987,0 hPa 0,0 l/m 0,0 km/h O 6,5 C 12,2 C 0,0 km/h
05.06.2014 23:00 10,9 C 74 % 987,2 hPa 0,0 l/m 0,0 km/h SO 6,5 C 10,9 C 0,0 km/h
06.06.2014 00:00 10,3 C 77 % 987,3 hPa 0,0 l/m 0,0 km/h SO 6,4 C 10,3 C 0,0 km/h
06.06.2014 01:00 10,1 C 79 % 987,3 hPa 0,0 l/m 0,0 km/h SO 6,6 C 10,1 C 0,0 km/h
06.06.2014 02:00 9,1 C 80 % 987,4 hPa 0,0 l/m 0,0 km/h NO 5,8 C 9,1 C 0,0 km/h
06.06.2014 03:00 8,3 C 82 % 987,5 hPa 0,0 l/m 0,0 km/h N-NO 5,4 C 8,3 C 0,0 km/h
06.06.2014 04:00 7,6 C 84 % 987,0 hPa 0,0 l/m 0,0 km/h NO 5,1 C 7,6 C 0,0 km/h
06.06.2014 05:00 6,6 C 85 % 987,3 hPa 0,0 l/m 0,0 km/h O-NO 4,3 C 6,6 C 0,0 km/h
06.06.2014 06:00 6,8 C 85 % 987,8 hPa 0,0 l/m 0,0 km/h O-NO 4,5 C 6,8 C 0,0 km/h
06.06.2014 07:00 11,0 C 81 % 987,7 hPa 0,0 l/m 0,0 km/h SO 7,9 C 11,0 C 0,0 km/h
06.06.2014 08:00 23,9 C 51 % 987,9 hPa 0,0 l/m 0,0 km/h S-SO 13,1 C 23,9 C 0,0 km/h
06.06.2014 09:00 25,9 C 43 % 988,0 hPa 0,0 l/m 0,0 km/h W-NW 12,3 C 25,9 C 0,0 km/h
06.06.2014 10:00 26,6 C 42 % 987,7 hPa 0,0 l/m 0,0 km/h S 12,6 C 26,6 C 0,0 km/h
06.06.2014 11:00 27,3 C 43 % 987,5 hPa 0,0 l/m 4,5 km/h S-SW 13,6 C 27,3 C 2,5 km/h
06.06.2014 12:00 27,2 C 42 % 987,2 hPa 0,0 l/m 0,0 km/h SW 13,2 C 27,2 C 0,0 km/h
06.06.2014 13:00 29,2 C 40 % 986,6 hPa 0,0 l/m 1,3 km/h W 14,2 C 29,2 C 0,7 km/h
06.06.2014 14:00 30,5 C 37 % 986,1 hPa 0,0 l/m 5,8 km/h W 14,1 C 30,5 C 3,2 km/h
06.06.2014 15:00 33,2 C 32 % 985,7 hPa 0,0 l/m 0,0 km/h W-SW 14,2 C 33,2 C 0,0 km/h
06.06.2014 16:00 34,9 C 29 % 985,3 hPa 0,0 l/m 1,9 km/h SW 14,2 C 34,9 C 1,1 km/h
06.06.2014 17:00 36,2 C 27 % 985,2 hPa 0,0 l/m 0,0 km/h W-NW 14,2 C 36,2 C 0,0 km/h
06.06.2014 18:00 30,9 C 36 % 984,8 hPa 0,0 l/m 3,2 km/h W-NW 14,1 C 30,9 C 1,8 km/h
06.06.2014 19:00 28,3 C 44 % 984,8 hPa 0,0 l/m 0,0 km/h O 14,9 C 28,3 C 0,0 km/h
06.06.2014 20:00 23,5 C 56 % 984,7 hPa 0,0 l/m 0,0 km/h O 14,2 C 23,5 C 0,0 km/h
06.06.2014 21:00 19,8 C 61 % 985,1 hPa 0,0 l/m 0,0 km/h O-SO 12,1 C 19,8 C 0,0 km/h
06.06.2014 22:00 17,1 C 70 % 985,7 hPa 0,0 l/m 0,0 km/h SO 11,6 C 17,1 C 0,0 km/h
06.06.2014 23:00 16,2 C 72 % 985,8 hPa 0,0 l/m 0,0 km/h SO 11,1 C 16,2 C 0,0 km/h
07.06.2014 00:00 15,6 C 74 % 986,0 hPa 0,0 l/m 0,0 km/h O-NO 11,0 C 15,6 C 0,0 km/h
07.06.2014 01:00 15,3 C 75 % 985,9 hPa 0,0 l/m 0,0 km/h O 10,9 C 15,3 C 0,0 km/h
07.06.2014 02:00 14,2 C 76 % 986,5 hPa 0,0 l/m 0,0 km/h NO 10,0 C 14,2 C 0,0 km/h
07.06.2014 03:00 13,9 C 78 % 986,3 hPa 0,0 l/m 0,0 km/h NO 10,1 C 13,9 C 0,0 km/h
07.06.2014 04:00 13,3 C 79 % 986,5 hPa 0,0 l/m 0,0 km/h O-NO 9,7 C 13,3 C 0,0 km/h
07.06.2014 05:00 12,3 C 81 % 986,8 hPa 0,0 l/m 0,0 km/h NO 9,1 C 12,3 C 0,0 km/h
07.06.2014 06:00 12,3 C 82 % 986,9 hPa 0,0 l/m 0,0 km/h SO 9,3 C 12,3 C 0,0 km/h
07.06.2014 07:00 15,6 C 80 % 987,1 hPa 0,0 l/m 0,0 km/h SO 12,2 C 15,6 C 0,0 km/h
07.06.2014 08:00 27,3 C 52 % 987,0 hPa 0,0 l/m 0,0 km/h N-NW 16,6 C 27,3 C 0,0 km/h
07.06.2014 09:00 31,2 C 42 % 987,2 hPa 0,0 l/m 0,0 km/h W 16,7 C 31,2 C 0,0 km/h
07.06.2014 10:00 32,1 C 42 % 986,9 hPa 0,0 l/m 0,4 km/h W-SW 17,5 C 32,1 C 0,4 km/h
07.06.2014 11:00 34,2 C 39 % 986,9 hPa 0,0 l/m 0,0 km/h W-SW 18,2 C 34,2 C 0,0 km/h
07.06.2014 12:00 33,1 C 35 % 986,5 hPa 0,0 l/m 4,3 km/h S-SW 15,6 C 33,1 C 4,3 km/h
07.06.2014 13:00 33,6 C 36 % 986,1 hPa 0,0 l/m 0,0 km/h S-SW 16,4 C 33,6 C 0,0 km/h
07.06.2014 14:00 34,1 C 35 % 985,4 hPa 0,0 l/m 0,0 km/h W-NW 16,4 C 34,1 C 0,0 km/h
07.06.2014 15:00 35,6 C 32 % 985,3 hPa 0,0 l/m 1,1 km/h W-SW 16,3 C 35,6 C 1,1 km/h
07.06.2014 16:00 36,4 C 29 % 985,5 hPa 0,0 l/m 1,1 km/h W-NW 15,5 C 36,4 C 1,1 km/h
07.06.2014 17:00 34,7 C 34 % 985,6 hPa 0,0 l/m 0,0 km/h N-NW 16,5 C 34,7 C 0,0 km/h
07.06.2014 18:00 35,4 C 33 % 985,9 hPa 0,0 l/m 0,0 km/h N-NW 16,6 C 35,4 C 0,0 km/h
07.06.2014 19:00 34,7 C 35 % 986,0 hPa 0,0 l/m 0,0 km/h O-NO 16,9 C 34,7 C 0,0 km/h
07.06.2014 20:00 27,9 C 50 % 985,8 hPa 0,0 l/m 0,0 km/h S-SO 16,5 C 27,9 C 0,0 km/h
07.06.2014 21:00 22,9 C 59 % 985,8 hPa 0,0 l/m 4,7 km/h SO 14,5 C 22,9 C 4,7 km/h
07.06.2014 22:00 19,4 C 68 % 986,4 hPa 0,0 l/m 6,5 km/h SO 13,3 C 19,4 C 6,5 km/h
07.06.2014 23:00 17,9 C 73 % 987,0 hPa 0,0 l/m 0,0 km/h O-SO 13,0 C 17,9 C 0,0 km/h
08.06.2014 00:00 17,1 C 74 % 987,1 hPa 0,0 l/m 0,0 km/h O-NO 12,4 C 17,1 C 0,0 km/h
08.06.2014 01:00 16,9 C 75 % 987,5 hPa 0,0 l/m 0,0 km/h O-NO 12,4 C 16,9 C 0,0 km/h
08.06.2014 02:00 16,1 C 77 % 987,4 hPa 0,0 l/m 0,0 km/h SO 12,1 C 16,1 C 0,0 km/h
08.06.2014 03:00 15,6 C 76 % 987,5 hPa 0,0 l/m 0,0 km/h SO 11,4 C 15,6 C 0,0 km/h
08.06.2014 04:00 15,4 C 77 % 987,6 hPa 0,0 l/m 0,0 km/h O-SO 11,4 C 15,4 C 0,0 km/h
08.06.2014 05:00 14,9 C 79 % 987,8 hPa 0,0 l/m 0,0 km/h NO 11,3 C 14,9 C 0,0 km/h
08.06.2014 06:00 15,5 C 78 % 987,9 hPa 0,0 l/m 1,3 km/h NO 11,7 C 15,5 C 0,7 km/h
08.06.2014 07:00 18,1 C 77 % 988,3 hPa 0,0 l/m 0,0 km/h SO 14,0 C 18,1 C 0,0 km/h
08.06.2014 08:00 27,4 C 53 % 988,5 hPa 0,0 l/m 18,8 km/h S-SW 17,0 C 25,9 C 10,4 km/h
08.06.2014 09:00 30,5 C 47 % 988,8 hPa 0,0 l/m 0,0 km/h W-NW 17,9 C 30,5 C 0,0 km/h
08.06.2014 10:00 34,0 C 41 % 989,0 hPa 0,0 l/m 0,0 km/h SW 18,8 C 34,0 C 0,0 km/h
08.06.2014 11:00 35,8 C 39 % 989,4 hPa 0,0 l/m 5,8 km/h S 19,6 C 35,8 C 3,2 km/h
08.06.2014 12:00 34,1 C 42 % 989,3 hPa 0,0 l/m 0,0 km/h W 19,3 C 34,1 C 0,0 km/h
08.06.2014 13:00 34,0 C 38 % 989,2 hPa 0,0 l/m 4,5 km/h W-SW 17,6 C 34,0 C 2,5 km/h
08.06.2014 14:00 34,6 C 32 % 988,9 hPa 0,0 l/m 11,7 km/h W 15,5 C 34,6 C 6,5 km/h
08.06.2014 15:00 35,9 C 31 % 988,6 hPa 0,0 l/m 11,7 km/h W-NW 16,1 C 35,9 C 6,5 km/h
08.06.2014 16:00 39,5 C 27 % 988,2 hPa 0,0 l/m 0,0 km/h N 17,0 C 39,5 C 0,0 km/h
08.06.2014 17:00 42,8 C 24 % 988,1 hPa 0,0 l/m 0,0 km/h W 17,9 C 42,8 C 0,0 km/h
08.06.2014 18:00 39,9 C 28 % 987,7 hPa 0,0 l/m 0,0 km/h W 17,9 C 39,9 C 0,0 km/h
08.06.2014 19:00 36,3 C 36 % 987,8 hPa 0,0 l/m 0,0 km/h W 18,8 C 36,3 C 0,0 km/h
08.06.2014 20:00 29,6 C 49 % 987,6 hPa 0,0 l/m 0,0 km/h O 17,7 C 29,6 C 0,0 km/h
08.06.2014 21:00 25,0 C 57 % 987,5 hPa 0,0 l/m 0,0 km/h O-SO 15,9 C 25,0 C 0,0 km/h
08.06.2014 22:00 21,6 C 64 % 987,8 hPa 0,0 l/m 0,0 km/h O 14,5 C 21,6 C 0,0 km/h
08.06.2014 23:00 21,3 C 67 % 987,7 hPa 0,0 l/m 0,0 km/h NO 14,9 C 21,3 C 0,0 km/h
Min-Datum _ 06.06.14 08.06.14 04.06.14 - 02.06.14 - 06.06.14 06.06.14 02.06.14
_ Min-Zeit 05:19 17:19 15:19 - 00:19 - 05:19 05:19 00:19
Minimum _ 6,6 C 24 % 979,2 hPa - 0,0 km/h - 4,3 C 6,6 C 0,0 km/h
Max-Datum _ 08.06.14 03.06.14 08.06.14 04.06.14 05.06.14 - 08.06.14 08.06.14 05.06.14
_ Max-Zeit 17:19 06:19 11:19 17:19 16:19 - 11:19 17:19 16:19
Maximum _ 42,8 C 85 % 989,4 hPa 1,2 l/m 26,6 km/h
W
- 19,6 C 42,8 C 14,8 km/h
W
Durchschnitt _ 20,4 C 61 % 986,0 hPa #2,0 l/m 2,0 km/h SO 11,5 C 20,2 C 1,2 km/h
www.sexauwetter.de